Terminal Aerodrome Forecast
Issued by NWS

Home | Current Version | Previous Version | Text Only | Print | Product List | Glossary On
Versions: 1 2 3 4 5 6 7 8 9 10 11 12 13 14 15 16
000
FTUS44 KLZK 030500
TAFADF
TAF
KADF 030539Z 0306/0406 00000KT 4SM BR BKN250
      TEMPO 0309/0313 1SM BR OVC025
     FM031400 22006KT P6SM BKN025 BKN040
     FM031800 20007KT P6SM SCT040 SCT150
     FM040000 16003KT P6SM SCT250=

USA.gov is the U.S. government's official web portal to all federal, state and local government web resources and services.